createdAt,value
2022-12-31T00:00:39.817Z,14.52
2022-12-31T00:03:09.882Z,14.50
2022-12-31T00:05:37.965Z,14.54
2022-12-31T00:08:05.879Z,14.45
2022-12-31T00:10:39.908Z,14.46
2022-12-31T00:13:10.542Z,14.58
2022-12-31T00:15:39.312Z,14.50
2022-12-31T00:18:08.310Z,14.42
2022-12-31T00:20:40.946Z,14.41
2022-12-31T00:23:10.035Z,14.44
2022-12-31T00:25:38.259Z,14.42
2022-12-31T00:28:06.058Z,14.40
2022-12-31T00:30:35.697Z,14.42
2022-12-31T00:33:03.637Z,14.49
2022-12-31T00:35:31.313Z,14.49
2022-12-31T00:37:59.123Z,14.46
2022-12-31T00:40:29.046Z,14.49
2022-12-31T00:42:56.755Z,14.44
2022-12-31T00:45:24.483Z,14.45
2022-12-31T00:47:53.646Z,14.53
2022-12-31T00:50:21.358Z,14.61
2022-12-31T00:52:49.053Z,14.53
2022-12-31T00:55:17.010Z,14.60
2022-12-31T00:57:44.770Z,14.63
2022-12-31T01:00:14.629Z,14.58
2022-12-31T01:02:42.562Z,14.56
2022-12-31T01:05:11.747Z,14.60
2022-12-31T01:07:39.512Z,14.62
2022-12-31T01:10:08.871Z,14.63
2022-12-31T01:12:36.971Z,14.58
2022-12-31T01:15:06.447Z,14.65
2022-12-31T01:17:34.545Z,14.68
2022-12-31T01:20:02.284Z,14.72
2022-12-31T01:22:31.761Z,14.64
2022-12-31T01:24:59.521Z,14.72
2022-12-31T01:27:27.291Z,14.64
2022-12-31T01:29:55.942Z,14.64
2022-12-31T01:32:23.608Z,14.68
2022-12-31T01:34:51.302Z,14.70
2022-12-31T01:37:19.154Z,14.67
2022-12-31T01:39:48.510Z,14.63
2022-12-31T01:42:16.240Z,14.67
2022-12-31T01:44:52.596Z,14.74
2022-12-31T01:47:39.585Z,14.76
2022-12-31T01:50:15.599Z,14.73
2022-12-31T01:52:48.682Z,14.78
2022-12-31T01:55:24.165Z,14.59
2022-12-31T01:57:57.005Z,14.70
2022-12-31T02:00:25.141Z,14.68
2022-12-31T02:02:53.276Z,14.70
2022-12-31T02:05:31.811Z,14.75
2022-12-31T02:08:00.033Z,14.69
2022-12-31T02:10:29.172Z,14.70
2022-12-31T02:12:57.539Z,14.62
2022-12-31T02:15:45.562Z,14.56
2022-12-31T02:18:29.002Z,14.61
2022-12-31T02:21:29.860Z,14.62
2022-12-31T02:24:32.434Z,14.49
2022-12-31T02:27:09.040Z,14.40
2022-12-31T02:30:09.394Z,14.36
2022-12-31T02:32:50.400Z,14.48
2022-12-31T02:35:28.683Z,14.46
2022-12-31T02:38:04.213Z,14.58
2022-12-31T02:40:35.551Z,14.54
2022-12-31T02:43:03.895Z,14.53
2022-12-31T02:45:38.953Z,14.59
2022-12-31T02:48:29.325Z,14.51
2022-12-31T02:51:12.756Z,14.49
2022-12-31T02:54:19.726Z,14.55
2022-12-31T02:57:04.229Z,14.44
2022-12-31T02:59:59.278Z,14.37
2022-12-31T03:02:33.843Z,14.35
2022-12-31T03:05:03.701Z,14.33
2022-12-31T03:07:33.161Z,14.34
2022-12-31T03:10:01.487Z,14.40
2022-12-31T03:12:48.124Z,14.31
2022-12-31T03:15:20.630Z,14.14
2022-12-31T03:17:54.811Z,14.15
2022-12-31T03:20:45.506Z,14.11
2022-12-31T03:23:17.591Z,14.10
2022-12-31T03:25:46.226Z,14.01
2022-12-31T03:28:17.521Z,14.10
2022-12-31T03:30:50.048Z,14.23
2022-12-31T03:33:20.814Z,14.45
2022-12-31T03:35:50.164Z,14.50
2022-12-31T03:38:19.298Z,14.68
2022-12-31T03:40:50.182Z,14.81
2022-12-31T03:43:19.579Z,14.80
2022-12-31T03:45:51.370Z,14.77
2022-12-31T03:48:22.650Z,14.67
2022-12-31T03:50:51.088Z,14.64
2022-12-31T03:53:19.194Z,14.59
2022-12-31T03:55:51.894Z,14.68
2022-12-31T03:58:19.856Z,14.71
2022-12-31T04:00:47.717Z,14.70
2022-12-31T04:03:15.648Z,14.60
2022-12-31T04:05:44.866Z,14.58
2022-12-31T04:08:12.681Z,14.61
2022-12-31T04:10:40.464Z,14.54
2022-12-31T04:13:08.188Z,14.52
2022-12-31T04:15:35.875Z,14.38
2022-12-31T04:18:03.959Z,14.46
2022-12-31T04:20:31.705Z,14.48
2022-12-31T04:23:00.863Z,14.41
2022-12-31T04:25:28.655Z,14.38
2022-12-31T04:27:56.478Z,14.36
2022-12-31T04:30:24.308Z,14.36
2022-12-31T04:32:52.102Z,14.31
2022-12-31T04:35:20.456Z,14.27
2022-12-31T04:37:48.439Z,14.26
2022-12-31T04:40:17.735Z,14.24
2022-12-31T04:42:45.597Z,14.35
2022-12-31T04:45:13.318Z,14.39
2022-12-31T04:47:41.123Z,14.41
2022-12-31T04:50:09.534Z,14.40
2022-12-31T04:52:42.676Z,14.48
2022-12-31T04:55:11.637Z,14.51
2022-12-31T04:57:41.487Z,14.50
2022-12-31T05:00:10.929Z,14.46
2022-12-31T05:02:39.016Z,14.43
2022-12-31T05:05:08.208Z,14.34
2022-12-31T05:07:36.094Z,14.30
2022-12-31T05:10:05.467Z,14.29
2022-12-31T05:12:33.459Z,14.21
2022-12-31T05:15:02.740Z,14.20
2022-12-31T05:17:30.488Z,14.23
2022-12-31T05:19:58.438Z,14.33
2022-12-31T05:22:29.058Z,14.45
2022-12-31T05:24:58.305Z,14.47
2022-12-31T05:27:27.411Z,14.48
2022-12-31T05:29:55.142Z,14.39
2022-12-31T05:32:24.472Z,14.31
2022-12-31T05:34:53.584Z,14.20
2022-12-31T05:37:21.406Z,14.08
2022-12-31T05:39:49.408Z,14.01
2022-12-31T05:42:17.387Z,13.92
2022-12-31T05:44:45.141Z,13.84
2022-12-31T05:47:13.118Z,13.82
2022-12-31T05:49:42.406Z,13.88
2022-12-31T05:52:10.197Z,13.76
2022-12-31T05:54:37.920Z,13.75
2022-12-31T05:57:06.629Z,13.73
2022-12-31T05:59:35.364Z,13.71
2022-12-31T06:02:03.111Z,13.67
2022-12-31T06:04:30.879Z,13.77
2022-12-31T06:07:00.143Z,13.75
2022-12-31T06:09:27.984Z,13.55
2022-12-31T06:11:56.001Z,13.67
2022-12-31T06:14:23.888Z,13.71
2022-12-31T06:16:51.594Z,13.81
2022-12-31T06:19:19.411Z,13.94
2022-12-31T06:21:47.441Z,13.91
2022-12-31T06:24:16.884Z,13.95
2022-12-31T06:26:44.704Z,13.82
2022-12-31T06:29:12.575Z,13.89
2022-12-31T06:31:40.317Z,14.04
2022-12-31T06:34:08.152Z,13.98
2022-12-31T06:36:35.879Z,14.11
2022-12-31T06:39:03.915Z,14.10
2022-12-31T06:41:33.252Z,14.06
2022-12-31T06:44:01.002Z,14.07
2022-12-31T06:46:28.827Z,14.20
2022-12-31T06:48:56.729Z,14.22
2022-12-31T06:51:25.282Z,14.29
2022-12-31T06:53:53.193Z,14.26
2022-12-31T06:56:31.321Z,14.07
2022-12-31T06:59:04.911Z,14.10
2022-12-31T07:01:49.284Z,14.20
2022-12-31T07:05:21.246Z,14.20
2022-12-31T07:08:05.969Z,14.17
2022-12-31T07:10:48.238Z,14.15
2022-12-31T07:13:50.216Z,14.06
2022-12-31T07:16:45.714Z,14.07
2022-12-31T07:19:30.266Z,14.10
2022-12-31T07:21:59.832Z,14.13
2022-12-31T07:24:28.664Z,14.14
2022-12-31T07:27:20.547Z,14.25
2022-12-31T07:30:03.163Z,14.24
2022-12-31T07:32:59.220Z,14.25
2022-12-31T07:35:43.416Z,14.13
2022-12-31T07:38:25.853Z,14.20
2022-12-31T07:41:09.841Z,14.36
2022-12-31T07:43:56.130Z,14.40
2022-12-31T07:46:31.244Z,14.58
2022-12-31T07:49:01.818Z,14.62
2022-12-31T07:51:30.467Z,14.79
2022-12-31T07:53:58.375Z,14.86
2022-12-31T07:56:26.201Z,15.03
2022-12-31T07:59:13.693Z,15.08
2022-12-31T08:01:49.916Z,15.09
2022-12-31T08:04:31.420Z,15.17
2022-12-31T08:07:12.150Z,15.29
2022-12-31T08:09:52.107Z,15.36
2022-12-31T08:12:23.302Z,15.41
2022-12-31T08:14:51.761Z,15.37
2022-12-31T08:17:20.651Z,15.48
2022-12-31T08:19:51.196Z,15.58
2022-12-31T08:23:04.820Z,15.60
2022-12-31T08:25:56.885Z,15.71
2022-12-31T08:28:46.002Z,15.73
2022-12-31T08:31:19.844Z,15.77
2022-12-31T08:34:05.544Z,15.84
2022-12-31T08:36:48.910Z,15.90
2022-12-31T08:39:37.116Z,15.96
2022-12-31T08:42:17.195Z,16.02
2022-12-31T08:44:55.647Z,16.11
2022-12-31T08:47:38.719Z,16.16
2022-12-31T08:50:14.019Z,16.24
2022-12-31T08:52:44.239Z,16.28
2022-12-31T08:55:16.409Z,16.29
2022-12-31T08:57:55.408Z,16.32
2022-12-31T09:00:24.193Z,16.35
2022-12-31T09:03:22.141Z,16.39
2022-12-31T09:06:02.265Z,16.25
2022-12-31T09:08:47.132Z,16.19
2022-12-31T09:11:24.046Z,16.17
2022-12-31T09:14:16.936Z,16.21
2022-12-31T09:16:59.544Z,16.17
2022-12-31T09:19:27.566Z,16.19
2022-12-31T09:21:56.489Z,16.23
2022-12-31T09:24:26.580Z,16.25
2022-12-31T09:27:05.937Z,16.32
2022-12-31T09:29:56.123Z,16.41
2022-12-31T09:32:39.268Z,16.47
2022-12-31T09:35:19.299Z,16.57
2022-12-31T09:37:50.689Z,16.61
2022-12-31T09:40:49.325Z,16.66
2022-12-31T09:44:01.698Z,16.77
2022-12-31T09:47:28.614Z,16.70
2022-12-31T09:50:40.857Z,16.80
2022-12-31T09:53:38.338Z,16.86
2022-12-31T09:56:17.371Z,16.93
2022-12-31T09:59:00.322Z,16.97
2022-12-31T10:01:46.448Z,17.06
2022-12-31T10:04:48.394Z,16.84
2022-12-31T10:07:35.438Z,16.34
2022-12-31T10:10:14.156Z,16.22
2022-12-31T10:13:33.946Z,16.12
2022-12-31T10:16:49.300Z,16.13
2022-12-31T10:19:52.322Z,16.15
2022-12-31T10:22:59.966Z,16.20
2022-12-31T10:25:48.409Z,16.30
2022-12-31T10:28:37.011Z,16.32
2022-12-31T10:31:16.061Z,16.47
2022-12-31T10:33:53.638Z,16.60
2022-12-31T10:36:32.265Z,16.73
2022-12-31T10:39:20.465Z,16.93
2022-12-31T10:42:38.375Z,17.06
2022-12-31T10:45:40.618Z,17.15
2022-12-31T10:49:23.164Z,16.81
2022-12-31T10:52:30.623Z,16.42
2022-12-31T10:55:48.121Z,16.20
2022-12-31T10:58:57.160Z,16.28
2022-12-31T11:01:48.121Z,16.21
2022-12-31T11:04:59.425Z,16.27
2022-12-31T11:08:02.700Z,16.33
2022-12-31T11:11:09.885Z,16.35
2022-12-31T11:14:20.376Z,16.43
2022-12-31T11:17:12.554Z,16.47
2022-12-31T11:19:59.030Z,16.68
2022-12-31T11:22:56.276Z,16.71
2022-12-31T11:25:40.075Z,16.75
2022-12-31T11:28:45.445Z,16.89
2022-12-31T11:31:34.757Z,16.92
2022-12-31T11:34:25.511Z,16.89
2022-12-31T11:37:18.120Z,16.84
2022-12-31T11:40:05.056Z,16.87
2022-12-31T11:42:50.274Z,16.98
2022-12-31T11:45:50.348Z,17.02
2022-12-31T11:48:32.949Z,17.16
2022-12-31T11:51:30.870Z,17.21
2022-12-31T11:54:37.186Z,17.23
2022-12-31T11:57:20.496Z,17.31
2022-12-31T11:59:59.240Z,17.38
2022-12-31T12:02:32.901Z,17.27
2022-12-31T12:05:10.675Z,17.37
2022-12-31T12:07:40.593Z,17.26
2022-12-31T12:10:23.861Z,17.22
2022-12-31T12:12:53.540Z,17.32
2022-12-31T12:15:26.563Z,17.27
2022-12-31T12:17:59.371Z,17.29
2022-12-31T12:20:33.082Z,17.29
2022-12-31T12:23:17.267Z,17.32
2022-12-31T12:25:45.275Z,17.34
2022-12-31T12:28:23.913Z,17.39
2022-12-31T12:31:00.784Z,17.41
2022-12-31T12:33:40.630Z,17.42
2022-12-31T12:36:11.505Z,17.41
2022-12-31T12:38:42.719Z,17.53
2022-12-31T12:41:20.504Z,17.58
2022-12-31T12:43:49.707Z,17.71
2022-12-31T12:46:27.770Z,17.85
2022-12-31T12:49:06.448Z,17.98
2022-12-31T12:52:04.003Z,18.02
2022-12-31T12:55:12.182Z,18.03
2022-12-31T12:58:00.223Z,18.07
2022-12-31T13:00:41.554Z,18.04
2022-12-31T13:04:14.721Z,18.06
2022-12-31T13:06:53.272Z,18.10
2022-12-31T13:09:42.893Z,18.08
2022-12-31T13:12:24.579Z,18.00
2022-12-31T13:15:02.517Z,17.79
2022-12-31T13:17:59.957Z,17.78
2022-12-31T13:20:41.500Z,17.61
2022-12-31T13:23:22.699Z,17.39
2022-12-31T13:26:07.579Z,17.14
2022-12-31T13:28:42.471Z,17.00
2022-12-31T13:31:17.846Z,16.79
2022-12-31T13:33:50.544Z,16.68
2022-12-31T13:36:23.657Z,16.69
2022-12-31T13:38:54.519Z,16.50
2022-12-31T13:41:33.214Z,16.42
2022-12-31T13:44:13.576Z,16.41
2022-12-31T13:46:49.043Z,16.35
2022-12-31T13:49:24.265Z,16.33
2022-12-31T13:52:01.081Z,16.33
2022-12-31T13:54:41.142Z,16.37
2022-12-31T13:57:23.734Z,16.36
2022-12-31T14:00:01.553Z,16.41
2022-12-31T14:02:50.480Z,16.47
2022-12-31T14:05:29.406Z,16.56
2022-12-31T14:08:00.717Z,16.63
2022-12-31T14:10:43.008Z,16.60
2022-12-31T14:13:41.962Z,16.68
2022-12-31T14:16:24.778Z,16.64
2022-12-31T14:19:06.555Z,16.60
2022-12-31T14:21:47.362Z,16.52
2022-12-31T14:24:33.081Z,16.52
2022-12-31T14:27:08.637Z,16.54
2022-12-31T14:29:45.358Z,16.52
2022-12-31T14:32:57.513Z,16.51
2022-12-31T14:35:46.346Z,16.53
2022-12-31T14:38:35.311Z,16.56
2022-12-31T14:41:24.173Z,16.55
2022-12-31T14:44:14.982Z,16.56
2022-12-31T14:47:07.737Z,16.64
2022-12-31T14:49:51.925Z,16.59
2022-12-31T14:52:23.876Z,16.63
2022-12-31T14:55:03.577Z,16.57
2022-12-31T14:58:01.435Z,16.67
2022-12-31T15:00:32.560Z,16.69
2022-12-31T15:03:07.503Z,16.72
2022-12-31T15:05:38.195Z,16.78
2022-12-31T15:08:25.334Z,16.84
2022-12-31T15:11:18.136Z,16.85
2022-12-31T15:14:16.175Z,16.90
2022-12-31T15:16:57.738Z,16.90
2022-12-31T15:20:16.922Z,16.97
2022-12-31T15:22:48.783Z,17.02
2022-12-31T15:25:27.007Z,17.08
2022-12-31T15:27:57.626Z,17.04
2022-12-31T15:30:40.601Z,17.09
2022-12-31T15:33:19.977Z,17.17
2022-12-31T15:35:52.759Z,17.19
2022-12-31T15:38:35.007Z,17.26
2022-12-31T15:41:24.619Z,17.21
2022-12-31T15:44:00.953Z,17.27
2022-12-31T15:46:36.723Z,17.33
2022-12-31T15:49:15.640Z,17.33
2022-12-31T15:51:51.363Z,17.37
2022-12-31T15:54:27.627Z,17.46
2022-12-31T15:56:55.477Z,17.47
2022-12-31T15:59:26.047Z,17.48
2022-12-31T16:01:56.946Z,17.47
2022-12-31T16:04:28.641Z,17.41
2022-12-31T16:07:03.317Z,17.45
2022-12-31T16:09:35.799Z,17.41
2022-12-31T16:12:11.919Z,17.31
2022-12-31T16:14:46.097Z,17.30
2022-12-31T16:17:28.177Z,17.27
2022-12-31T16:19:58.504Z,17.25
2022-12-31T16:22:35.809Z,17.23
2022-12-31T16:25:30.236Z,17.12
2022-12-31T16:27:58.321Z,17.06
2022-12-31T16:30:30.002Z,17.06
2022-12-31T16:33:03.141Z,17.03
2022-12-31T16:35:33.594Z,17.00
2022-12-31T16:38:14.608Z,17.03
2022-12-31T16:40:58.715Z,17.02
2022-12-31T16:43:29.370Z,17.06
2022-12-31T16:46:07.033Z,16.98
2022-12-31T16:48:35.976Z,17.07
2022-12-31T16:51:05.373Z,17.03
2022-12-31T16:53:38.110Z,17.01
2022-12-31T16:56:09.097Z,17.04
2022-12-31T16:58:42.255Z,17.10
2022-12-31T17:01:18.260Z,17.10
2022-12-31T17:03:53.152Z,17.07
2022-12-31T17:06:23.118Z,17.17
2022-12-31T17:09:13.809Z,17.09
2022-12-31T17:11:50.755Z,17.10
2022-12-31T17:14:23.144Z,17.16
2022-12-31T17:17:02.560Z,17.19
2022-12-31T17:19:40.514Z,17.13
2022-12-31T17:22:16.185Z,17.17
2022-12-31T17:24:48.725Z,17.16
2022-12-31T17:27:17.779Z,17.18
2022-12-31T17:29:45.579Z,17.28
2022-12-31T17:32:31.119Z,17.34
2022-12-31T17:34:58.993Z,17.30
2022-12-31T17:37:29.946Z,17.29
2022-12-31T17:40:40.568Z,17.34
2022-12-31T17:42:50.274Z,17.34
2022-12-31T17:45:21.651Z,17.28
2022-12-31T17:47:53.643Z,17.34
2022-12-31T17:50:24.902Z,17.34
2022-12-31T17:52:57.178Z,17.31
2022-12-31T17:55:28.799Z,17.35
2022-12-31T17:57:58.193Z,17.35
2022-12-31T18:00:27.658Z,17.34
2022-12-31T18:02:55.647Z,17.39
2022-12-31T18:05:24.673Z,17.41
2022-12-31T18:07:53.368Z,17.42
2022-12-31T18:10:25.286Z,17.36
2022-12-31T18:12:54.625Z,17.30
2022-12-31T18:15:24.691Z,17.36
2022-12-31T18:17:52.794Z,17.34
2022-12-31T18:20:20.842Z,17.26
2022-12-31T18:22:48.853Z,17.26
2022-12-31T18:25:21.389Z,17.26
2022-12-31T18:27:51.458Z,17.20
2022-12-31T18:30:20.702Z,17.22
2022-12-31T18:32:48.744Z,17.23
2022-12-31T18:36:06.482Z,17.21
2022-12-31T18:38:12.740Z,17.21
2022-12-31T18:40:44.453Z,17.12
2022-12-31T18:43:16.464Z,17.26
2022-12-31T18:45:48.686Z,17.29
2022-12-31T18:48:17.788Z,17.23
2022-12-31T18:50:47.229Z,17.17
2022-12-31T18:53:20.112Z,17.20
2022-12-31T18:55:51.678Z,17.14
2022-12-31T18:58:20.232Z,17.21
2022-12-31T19:00:51.354Z,17.20
2022-12-31T19:03:22.374Z,17.16
2022-12-31T19:05:51.992Z,17.19
2022-12-31T19:08:22.179Z,17.21
2022-12-31T19:10:52.522Z,17.11
2022-12-31T19:13:21.078Z,17.13
2022-12-31T19:15:53.019Z,17.09
2022-12-31T19:18:20.977Z,17.09
2022-12-31T19:20:48.931Z,17.10
2022-12-31T19:23:20.602Z,17.17
2022-12-31T19:25:50.108Z,17.20
2022-12-31T19:28:21.087Z,17.16
2022-12-31T19:30:51.071Z,17.09
2022-12-31T19:33:19.645Z,17.08
2022-12-31T19:35:47.638Z,16.99
2022-12-31T19:38:20.466Z,16.97
2022-12-31T19:40:49.142Z,16.99
2022-12-31T19:43:20.370Z,16.97
2022-12-31T19:45:51.617Z,16.95
2022-12-31T19:48:24.770Z,17.03
2022-12-31T19:50:58.233Z,17.00
2022-12-31T19:53:27.707Z,16.88
2022-12-31T19:55:55.449Z,16.82
2022-12-31T19:58:26.178Z,16.89
2022-12-31T20:01:02.919Z,16.87
2022-12-31T20:03:32.464Z,16.86
2022-12-31T20:06:02.961Z,16.85
2022-12-31T20:08:31.085Z,16.77
2022-12-31T20:10:58.999Z,16.76
2022-12-31T20:13:26.998Z,16.83
2022-12-31T20:15:56.309Z,16.83
2022-12-31T20:18:24.059Z,16.91
2022-12-31T20:20:55.891Z,17.01
2022-12-31T20:23:24.060Z,17.02
2022-12-31T20:25:59.287Z,17.14
2022-12-31T20:28:27.798Z,17.13
2022-12-31T20:30:56.974Z,17.22
2022-12-31T20:33:24.772Z,17.24
2022-12-31T20:35:52.628Z,17.30
2022-12-31T20:38:20.472Z,17.31
2022-12-31T20:40:48.193Z,17.28
2022-12-31T20:43:16.031Z,17.31
2022-12-31T20:45:44.664Z,17.45
2022-12-31T20:48:13.749Z,17.41
2022-12-31T20:50:41.493Z,17.48
2022-12-31T20:53:09.175Z,17.47
2022-12-31T20:55:38.015Z,17.34
2022-12-31T20:58:06.245Z,17.31
2022-12-31T21:00:34.057Z,17.31
2022-12-31T21:03:14.443Z,17.23
2022-12-31T21:05:54.323Z,17.17
2022-12-31T21:08:22.424Z,17.17
2022-12-31T21:10:50.987Z,17.20
2022-12-31T21:13:22.875Z,17.20
2022-12-31T21:15:52.556Z,17.20
2022-12-31T21:18:22.636Z,17.25
2022-12-31T21:20:53.294Z,17.16
2022-12-31T21:23:21.073Z,17.21
2022-12-31T21:25:50.274Z,17.10
2022-12-31T21:28:18.194Z,17.17
2022-12-31T21:30:46.108Z,17.20
2022-12-31T21:33:13.878Z,17.14
2022-12-31T21:35:45.672Z,17.15
2022-12-31T21:38:21.477Z,17.07
2022-12-31T21:40:49.667Z,17.08
2022-12-31T21:43:17.586Z,17.19
2022-12-31T21:45:46.042Z,17.25
2022-12-31T21:48:21.377Z,17.17
2022-12-31T21:50:51.373Z,17.22
2022-12-31T21:53:27.919Z,17.25
2022-12-31T21:56:09.077Z,17.27
2022-12-31T21:58:39.624Z,17.20
2022-12-31T22:01:33.946Z,17.17
2022-12-31T22:04:02.088Z,17.20
2022-12-31T22:06:30.599Z,17.17
2022-12-31T22:08:59.714Z,17.13
2022-12-31T22:11:28.534Z,17.16
2022-12-31T22:13:56.434Z,17.15
2022-12-31T22:16:24.345Z,17.23
2022-12-31T22:18:55.704Z,17.14
2022-12-31T22:21:26.594Z,17.21
2022-12-31T22:23:58.692Z,17.25
2022-12-31T22:26:29.288Z,17.25
2022-12-31T22:28:59.271Z,17.32
2022-12-31T22:31:32.595Z,17.38
2022-12-31T22:34:00.656Z,17.40
2022-12-31T22:36:28.401Z,17.37
2022-12-31T22:38:58.470Z,17.35
2022-12-31T22:41:28.901Z,17.39
2022-12-31T22:44:04.212Z,17.48
2022-12-31T22:46:34.337Z,17.46
2022-12-31T22:49:04.353Z,17.47
2022-12-31T22:51:55.753Z,17.35
2022-12-31T22:54:20.776Z,17.32
2022-12-31T22:56:50.024Z,17.41
2022-12-31T22:59:17.839Z,17.33
2022-12-31T23:01:45.789Z,17.30
2022-12-31T23:04:13.882Z,17.34
2022-12-31T23:06:44.747Z,17.34
2022-12-31T23:09:34.502Z,17.32
2022-12-31T23:12:06.132Z,17.24
2022-12-31T23:14:53.816Z,17.32
2022-12-31T23:17:44.068Z,17.23
2022-12-31T23:20:36.508Z,17.24
2022-12-31T23:23:09.696Z,17.18
2022-12-31T23:25:41.639Z,17.20
2022-12-31T23:28:14.242Z,17.21
2022-12-31T23:30:43.428Z,17.28
2022-12-31T23:33:15.763Z,17.40
2022-12-31T23:35:44.324Z,17.52
2022-12-31T23:38:13.554Z,17.47
2022-12-31T23:40:41.328Z,17.60
2022-12-31T23:43:20.421Z,17.65
2022-12-31T23:45:49.203Z,17.58
2022-12-31T23:48:17.028Z,17.71
2022-12-31T23:50:50.848Z,17.71
2022-12-31T23:53:20.956Z,17.72
2022-12-31T23:55:48.871Z,17.78
2022-12-31T23:58:17.999Z,17.75
